Latest Coastal Weather Observations for Carnarvon

IDW60701

Issued at 9:12 pm WST Saturday 31 January 2015 (issued every 10 minutes, with the page automatically refreshed every 10 minutes)

About coastal observations | Map of coastal stations | Coastal observations for WA | Marine services | Other Formats
Station Details ID: 006011 Name: CARNARVON AIRPORT Lat: -24.89 Lon: 113.67 Height: 4.0 m
Data from the previous 72 hours. | See also: Recent months at Carnarvon
Date/Time
WST
Temp

°C
Wind Pressure Rain
since 9am
mm
Weather Cloud Vis
km
Sea
Height
m
Swell
Dir
 
Speed
knots
Gust
knots
hPa Trend Height
m
Period
s
Dir
31/09:00pm 27.2 CALM 0 3 1006.6 - 0.0 - - 10 - - - -
31/08:30pm 27.4 WSW 4 5 1006.1 - 0.0 - - 10 - - - -
31/08:00pm 27.4 WSW 5 6 1006.0 - 0.0 - - 10 - - - -
31/07:30pm 27.7 W 5 7 1005.7 - 0.0 - - 10 - - - -
31/07:00pm 29.4 SSW 6 8 1005.5 - 0.0 - - 10 - - - -
31/06:30pm 30.7 SSE 3 5 1005.4 - 0.0 - - 10 - - - -
31/06:20pm 30.5 ESE 6 9 1005.5 - 0.0 - Partly cloudy 10 - - - -
31/06:01pm 29.8 E 7 9 1006.0 - 0.0 - Partly cloudy 8 - - - -
31/06:00pm 29.8 E 7 9 1006.0 - 0.0 - Cloudy 9 - - - -
31/05:30pm 29.2 SW 6 9 1005.6 - 0.0 - Partly cloudy 10 - - - -
31/05:00pm 28.8 W 7 10 1005.4 - 0.0 - - 10 - - - -
31/04:30pm 28.9 WNW 13 16 1004.7 - 0.0 - - 10 - - - -
31/04:00pm 29.0 W 13 17 1004.7 - 0.0 - - 10 - - - -
31/03:30pm 29.8 WNW 15 19 1004.5 - 0.0 - - 10 - - - -
31/03:00pm 28.9 WNW 16 20 1004.7 - 0.0 - - 10 - - - -
31/02:30pm 29.6 WNW 17 22 1005.2 - 0.0 - - 10 - - - -
31/02:00pm 29.7 WNW 18 22 1005.6 - 0.0 - - 10 - - - -
31/01:30pm 29.5 WNW 18 25 1005.7 - 0.0 - - 10 - - - -
31/01:00pm 30.2 WNW 17 22 1005.7 - 0.0 - - 10 - - - -
31/12:30pm 30.9 W 16 22 1005.8 - 0.0 - - 10 - - - -
31/12:00pm 31.3 W 12 16 1005.7 - 0.0 - - 10 - - - -
31/11:30am 33.7 WNW 13 16 1005.8 - 0.0 - - 10 - - - -
31/11:00am 32.4 W 11 15 1005.8 - 0.0 - - 10 - - - -
31/10:30am 34.6 N 8 12 1006.1 - 0.0 - - 10 - - - -
31/10:00am 33.6 N 9 13 1006.2 - 0.0 - - 10 - - - -
31/09:30am 32.1 N 9 13 1006.1 - 0.0 - - 10 - - - -
31/09:00am 30.0 N 6 9 1006.2 F 0.0 Haze Mostly clear 25 - - - -
31/08:30am 29.9 NE 7 10 1006.2 - 0.0 - - 10 - - - -
31/08:00am 27.9 NE 5 8 1006.2 - 0.0 - - 10 - - - -
31/07:30am 26.3 NNE 5 6 1005.9 - 0.0 - - 10 - - - -
31/07:00am 24.3 CALM 0 0 1005.7 - 0.0 - - 10 - - - -
31/06:30am 22.2 SE 7 7 1005.5 - 0.0 - - 10 - - - -
31/06:00am 21.6 SE 7 7 1005.7 - 0.0 - - 10 - - - -
31/05:30am 21.4 SSE 8 9 1005.7 - 0.0 - - 10 - - - -
31/05:00am 21.7 SE 8 9 1005.4 - 0.0 - - 10 - - - -
31/04:30am 23.1 E 2 3 1005.4 - 0.0 - - 10 - - - -
31/04:00am 23.4 E 5 6 1005.4 - 0.0 - - 10 - - - -
31/03:30am 23.9 E 7 8 1005.1 - 0.0 - - 10 - - - -
31/03:00am 24.4 ESE 7 9 1005.2 - 0.0 - - 10 - - - -
31/02:30am 25.1 SE 6 8 1005.1 - 0.0 - - 10 - - - -
31/02:00am 26.1 S 7 9 1005.3 - 0.0 - - 10 - - - -
31/01:30am 26.2 S 9 12 1005.6 - 0.0 - - 10 - - - -
31/01:00am 25.7 SSW 10 12 1005.8 - 0.0 - - 10 - - - -
31/12:30am 25.6 S 11 13 1006.2 - 0.0 - - 10 - - - -
31/12:00am 25.6 SSW 9 12 1006.6 - 0.0 - - 10 - - - -
 
Date/Time
WST
Temp

°C
Wind Pressure Rain
since 9am
mm
Weather Cloud Vis
km
Sea
Height
m
Swell
Dir
 
Speed
knots
Gust
knots
hPa Trend Height
m
Period
s
Dir
30/11:30pm 25.6 SSW 8 12 1006.7 - 0.0 - - 10 - - - -
30/11:00pm 25.6 SW 10 14 1006.6 - 0.0 - - 10 - - - -
30/10:30pm 25.6 SSW 13 17 1006.3 - 0.0 - - 10 - - - -
30/10:00pm 25.7 SSW 11 15 1006.3 - 0.0 - - 10 - - - -
30/09:30pm 25.6 SSW 13 16 1006.3 - 0.0 - - 10 - - - -
30/09:00pm 25.8 SSW 14 17 1006.1 - 0.0 - - 10 - - - -
30/08:30pm 26.9 S 13 16 1006.0 - 0.0 - - 10 - - - -
30/08:00pm 27.1 S 12 15 1005.8 - 0.0 - - 10 - - - -
30/07:30pm 26.9 S 15 18 1005.3 - 0.0 - - 10 - - - -
30/07:00pm 26.7 SSW 15 20 1004.8 - 0.0 - - 10 - - - -
30/06:30pm 26.9 SSW 13 17 1004.4 - 0.0 - - 10 - - - -
30/06:00pm 27.8 SSW 16 21 1004.0 - 0.0 - - 10 - - - -
30/05:30pm 27.9 SSW 17 22 1004.1 - 0.0 - - 10 - - - -
30/05:00pm 28.3 SSW 18 22 1004.3 - 0.0 - - 10 - - - -
30/04:30pm 29.2 SSW 16 21 1004.6 - 0.0 - - 10 - - - -
30/04:00pm 29.2 SSW 17 21 1004.9 - 0.0 - - 10 - - - -
30/03:30pm 30.0 SSW 16 21 1005.3 - 0.0 - - 10 - - - -
30/03:00pm 29.0 SSW 17 21 1005.6 - 0.0 - - 10 - - - -
30/02:30pm 29.5 SSW 18 21 1005.8 - 0.0 - - 10 - - - -
30/02:00pm 30.4 S 15 19 1006.1 - 0.0 - - 10 - - - -
30/01:30pm 29.6 S 16 20 1006.2 - 0.0 - - 10 - - - -
30/01:00pm 29.3 SSW 17 21 1006.3 - 0.0 - - 10 - - - -
30/12:30pm 29.1 SSW 15 18 1006.6 - 0.0 - - 10 - - - -
30/12:00pm 29.4 S 16 21 1006.8 - 0.0 - - 10 - - - -
30/11:30am 29.1 SSW 14 18 1007.0 - 0.0 - - 10 - - - -
30/11:00am 27.6 SSW 13 16 1007.3 - 0.0 - - 10 - - - -
30/10:30am 27.7 S 14 18 1007.8 - 0.0 - - 10 - - - -
30/10:00am 29.5 S 11 15 1007.9 - 0.0 - - 10 - - - -
30/09:30am 28.4 S 12 15 1007.9 - 0.0 - - 10 - - - -
30/09:00am 28.4 S 12 15 1007.9 - 0.0 - - 10 - - - -
30/08:30am 28.8 S 12 17 1007.8 - 0.0 - - 10 - - - -
30/08:00am 26.7 S 11 14 1007.6 - 0.0 - - 10 - - - -
30/07:30am 25.6 S 9 12 1007.5 - 0.0 - - 10 - - - -
30/07:00am 25.2 SSE 8 10 1007.3 - 0.0 - - 10 - - - -
30/06:30am 24.0 SSE 6 8 1007.2 - 0.0 - - 10 - - - -
30/06:00am 23.8 S 7 9 1006.9 - 0.0 - - 10 - - - -
30/05:30am 23.8 S 6 8 1006.7 - 0.0 - - 10 - - - -
30/05:00am 23.9 SSE 7 10 1006.6 - 0.0 - - 10 - - - -
30/04:30am 24.4 SSE 7 9 1006.5 - 0.0 - - 9 - - - -
30/04:00am 24.5 S 9 12 1006.8 - 0.0 - Partly cloudy 10 - - - -
30/03:30am 24.6 SSE 10 14 1006.8 - 0.0 - Partly cloudy 10 - - - -
30/03:00am 24.6 S 13 17 1006.4 - 0.0 - - 10 - - - -
30/02:30am 24.6 S 13 17 1006.4 - 0.0 - - 10 - - - -
30/02:00am 24.7 S 14 17 1006.6 - 0.0 - - 10 - - - -
30/01:30am 24.8 S 13 17 1006.6 - 0.0 - - 10 - - - -
30/01:00am 24.9 S 12 15 1006.7 - 0.0 - - 10 - - - -
30/12:30am 24.9 S 13 16 1007.1 - 0.0 - - 10 - - - -
30/12:00am 24.9 S 14 16 1006.9 - 0.0 - - 10 - - - -
 
Date/Time
WST
Temp

°C
Wind Pressure Rain
since 9am
mm
Weather Cloud Vis
km
Sea
Height
m
Swell
Dir
 
Speed
knots
Gust
knots
hPa Trend Height
m
Period
s
Dir
29/11:30pm 24.8 S 15 20 1007.0 - 0.0 - - 10 - - - -
29/11:00pm 24.8 S 15 21 1007.3 - 0.0 - - 10 - - - -
29/10:30pm 24.7 S 17 21 1007.5 - 0.0 - Partly cloudy 10 - - - -
29/10:00pm 24.7 S 16 22 1007.0 - 0.0 - - 10 - - - -
29/09:30pm 24.8 SSW 17 22 1006.7 - 0.0 - - 10 - - - -
29/09:00pm 25.0 S 19 23 1007.1 - 0.0 - Cloudy 10 - - - -
29/08:30pm 25.5 S 17 22 1006.7 - 0.0 - - 10 - - - -
29/08:00pm 25.5 S 20 25 1006.7 - 0.0 - - 10 - - - -
29/07:30pm 25.1 S 20 27 1006.6 - 0.0 - Partly cloudy 10 - - - -
29/07:00pm 25.1 S 20 26 1006.0 - 0.0 - - 10 - - - -
29/06:30pm 25.6 SSW 21 27 1005.4 - 0.0 - - 10 - - - -
29/06:00pm 26.2 SSW 22 28 1004.9 - 0.0 - - 10 - - - -
29/05:30pm 26.8 SSW 22 29 1004.4 - 0.0 - - 10 - - - -
29/05:00pm 27.2 SSW 21 29 1004.4 - 0.0 - - 10 - - - -
29/04:30pm 27.5 SSW 22 28 1004.5 - 0.0 - - 10 - - - -
29/04:00pm 28.7 SSW 21 28 1004.5 - 0.0 - - 10 - - - -
29/03:30pm 28.2 SSW 22 28 1004.8 - 0.0 - - 10 - - - -
29/03:00pm 28.1 SSW 20 26 1005.2 F 0.0 Haze Mostly clear 15 - - - -
29/02:30pm 28.9 SSW 21 26 1005.6 - 0.0 - - 10 - - - -
29/02:00pm 28.7 SSW 20 26 1006.0 - 0.0 - - 10 - - - -
29/01:30pm 28.3 SSW 19 25 1006.3 - 0.0 - - 10 - - - -
29/01:00pm 27.8 SSW 19 24 1006.7 - 0.0 - - 10 - - - -
29/12:30pm 28.3 SSW 18 22 1006.9 - 0.0 - - 10 - - - -
29/12:00pm 28.4 SSW 16 21 1007.3 R 0.0 Haze Mostly clear 25 - - - -
29/11:30am 28.7 S 16 20 1007.7 - 0.0 - Mostly clear 10 - - - -
29/11:00am 28.2 S 16 21 1007.8 - 0.0 - Mostly clear 10 - - - -
29/10:30am 27.8 S 15 20 1007.9 - 0.0 - Mostly clear 10 - - - -
29/10:00am 27.5 S 15 19 1007.9 - 0.0 - Mostly clear 10 - - - -
29/09:30am 26.6 S 17 21 1007.8 - 0.0 - Partly cloudy 10 - - - -
29/09:16am 26.2 S 17 21 1007.6 - 0.0 - Partly cloudy 10 - - - -
29/09:00am 26.1 S 16 20 1007.9 R 0.0 Haze Partly cloudy 20 - - - -
29/08:30am 25.4 S 16 21 1008.0 - 0.0 - Cloudy 10 - - - -
29/08:00am 25.0 S 15 20 1007.6 - 0.0 - Mostly cloudy 10 - - - -
29/07:30am 24.8 S 14 19 1007.3 - 0.0 - Mostly cloudy 10 - - - -
29/07:00am 24.0 S 16 23 1007.1 - 0.0 - Mostly cloudy 10 - - - -
29/06:30am 23.9 S 16 22 1006.8 - 0.0 - Partly cloudy 10 - - - -
29/06:00am 23.7 S 16 21 1006.4 F 0.0 Haze Partly cloudy 15 - - - -
29/05:30am 23.7 SSW 17 22 1006.1 - 0.0 - Partly cloudy 10 - - - -
29/05:00am 23.7 S 15 23 1005.9 - 0.0 - Partly cloudy 10 - - - -
29/04:37am 23.7 SSW 16 23 1005.7 - 0.0 - Partly cloudy 10 - - - -
29/04:30am 23.8 SSW 15 19 1005.7 - 0.0 - Partly cloudy 10 - - - -
29/04:00am 23.7 SSW 14 20 1005.4 - 0.0 - - 10 - - - -
29/03:30am 23.9 SSW 16 21 1005.7 - 0.0 - Partly cloudy 10 - - - -
29/03:00am 24.0 SSW 15 19 1005.9 - 0.0 - Cloudy 10 - - - -
29/02:30am 24.1 S 15 20 1005.8 - 0.0 - - 10 - - - -
29/02:00am 24.1 S 15 21 1005.9 - 0.0 - Partly cloudy 10 - - - -
29/01:30am 24.2 S 15 20 1006.0 - 0.0 - Partly cloudy 10 - - - -
29/01:02am 24.3 S 15 21 1006.3 - 0.0 - Partly cloudy 10 - - - -
29/01:00am 24.3 S 15 21 1006.3 - 0.0 - Partly cloudy 10 - - - -
29/12:30am 24.3 S 17 22 1006.3 - 0.0 - - 10 - - - -
29/12:00am 24.5 S 18 22 1006.5 - 0.0 - Cloudy 10 - - - -
 
Date/Time
WST
Temp

°C
Wind Pressure Rain
since 9am
mm
Weather Cloud Vis
km
Sea
Height
m
Swell
Dir
 
Speed
knots
Gust
knots
hPa Trend Height
m
Period
s
Dir
28/11:30pm 24.6 S 17 21 1006.8 - 0.0 - Partly cloudy 10 - - - -
28/11:00pm 24.5 S 17 21 1006.9 - 0.0 - Partly cloudy 10 - - - -
28/10:30pm 24.5 SSW 18 22 1006.5 - 0.0 - - 10 - - - -
28/10:00pm 24.6 SSW 19 24 1006.6 - 0.0 - - 10 - - - -
28/09:30pm 24.8 SSW 18 25 1006.5 - 0.0 - - 10 - - - -

Other Formats:

Comma delimited format used in spreadsheet applications
http://www.bom.gov.au/fwo/IDW60701/IDW60701.94300.axf

JavaScript Object Notation format (JSON) in row-major order
http://www.bom.gov.au/fwo/IDW60701/IDW60701.94300.json